sensor_id;sensor_type;location;lat;lon;timestamp;pressure;altitude;pressure_sealevel;temperature;humidity
59289;BME280;45056;47.602;9.886;2023-05-03T00:00:06;93514.03;;;9.33;65.13
59289;BME280;45056;47.602;9.886;2023-05-03T00:02:35;93509.38;;;9.34;65.08
59289;BME280;45056;47.602;9.886;2023-05-03T00:05:06;93511.31;;;9.33;64.86
59289;BME280;45056;47.602;9.886;2023-05-03T00:07:35;93512.50;;;9.32;64.91
59289;BME280;45056;47.602;9.886;2023-05-03T00:10:03;93510.97;;;9.31;64.88
59289;BME280;45056;47.602;9.886;2023-05-03T00:12:32;93512.16;;;9.30;64.72
59289;BME280;45056;47.602;9.886;2023-05-03T00:15:01;93513.75;;;9.28;64.69
59289;BME280;45056;47.602;9.886;2023-05-03T00:17:30;93516.88;;;9.26;64.58
59289;BME280;45056;47.602;9.886;2023-05-03T00:19:58;93510.34;;;9.23;64.63
59289;BME280;45056;47.602;9.886;2023-05-03T00:22:26;93515.00;;;9.23;64.56
59289;BME280;45056;47.602;9.886;2023-05-03T00:24:54;93510.41;;;9.20;64.37
59289;BME280;45056;47.602;9.886;2023-05-03T00:27:21;93508.19;;;9.15;64.24
59289;BME280;45056;47.602;9.886;2023-05-03T00:29:50;93505.13;;;9.13;64.18
59289;BME280;45056;47.602;9.886;2023-05-03T00:32:20;93501.38;;;9.06;64.38
59289;BME280;45056;47.602;9.886;2023-05-03T00:34:52;93510.78;;;9.02;64.47
59289;BME280;45056;47.602;9.886;2023-05-03T00:37:20;93500.31;;;9.00;64.70
59289;BME280;45056;47.602;9.886;2023-05-03T00:39:48;93507.72;;;9.00;64.58
59289;BME280;45056;47.602;9.886;2023-05-03T00:42:16;93500.75;;;8.99;64.49
59289;BME280;45056;47.602;9.886;2023-05-03T00:44:44;93491.06;;;8.98;64.19
59289;BME280;45056;47.602;9.886;2023-05-03T00:47:13;93495.72;;;8.97;64.25
59289;BME280;45056;47.602;9.886;2023-05-03T00:49:43;93489.94;;;8.95;64.30
59289;BME280;45056;47.602;9.886;2023-05-03T00:52:12;93495.81;;;8.93;64.29
59289;BME280;45056;47.602;9.886;2023-05-03T00:54:41;93497.84;;;8.89;64.31
59289;BME280;45056;47.602;9.886;2023-05-03T00:57:11;93495.94;;;8.86;64.36
59289;BME280;45056;47.602;9.886;2023-05-03T00:59:39;93486.00;;;8.79;64.42
59289;BME280;45056;47.602;9.886;2023-05-03T01:02:07;93491.06;;;8.77;64.38
59289;BME280;45056;47.602;9.886;2023-05-03T01:04:36;93487.56;;;8.77;64.54
59289;BME280;45056;47.602;9.886;2023-05-03T01:07:14;93490.72;;;8.75;64.51
59289;BME280;45056;47.602;9.886;2023-05-03T01:09:59;93492.72;;;8.71;64.48
59289;BME280;45056;47.602;9.886;2023-05-03T01:12:45;93488.13;;;8.68;64.58
59289;BME280;45056;47.602;9.886;2023-05-03T01:15:36;93482.34;;;8.66;64.42
59289;BME280;45056;47.602;9.886;2023-05-03T01:18:13;93489.72;;;8.65;64.51
59289;BME280;45056;47.602;9.886;2023-05-03T01:20:47;93490.47;;;8.66;64.49
59289;BME280;45056;47.602;9.886;2023-05-03T01:23:28;93485.50;;;8.64;64.18
59289;BME280;45056;47.602;9.886;2023-05-03T01:26:15;93484.00;;;8.60;63.79
59289;BME280;45056;47.602;9.886;2023-05-03T01:28:47;93488.38;;;8.54;63.77
59289;BME280;45056;47.602;9.886;2023-05-03T01:31:20;93483.00;;;8.50;63.69
59289;BME280;45056;47.602;9.886;2023-05-03T01:34:02;93489.25;;;8.47;63.78
59289;BME280;45056;47.602;9.886;2023-05-03T01:36:42;93476.50;;;8.44;63.86
59289;BME280;45056;47.602;9.886;2023-05-03T01:39:17;93478.09;;;8.41;64.06
59289;BME280;45056;47.602;9.886;2023-05-03T01:41:52;93477.75;;;8.39;64.15
59289;BME280;45056;47.602;9.886;2023-05-03T01:44:22;93477.75;;;8.39;64.15
59289;BME280;45056;47.602;9.886;2023-05-03T01:46:51;93475.47;;;8.37;64.37
59289;BME280;45056;47.602;9.886;2023-05-03T01:49:20;93474.34;;;8.35;64.39
59289;BME280;45056;47.602;9.886;2023-05-03T01:51:48;93473.22;;;8.32;64.39
59289;BME280;45056;47.602;9.886;2023-05-03T01:54:16;93469.38;;;8.30;64.21
59289;BME280;45056;47.602;9.886;2023-05-03T01:56:44;93465.56;;;8.27;64.09
59289;BME280;45056;47.602;9.886;2023-05-03T01:59:13;93468.69;;;8.26;64.06
59289;BME280;45056;47.602;9.886;2023-05-03T02:01:41;93475.69;;;8.23;64.11
59289;BME280;45056;47.602;9.886;2023-05-03T02:04:09;93481.53;;;8.21;64.02
59289;BME280;45056;47.602;9.886;2023-05-03T02:06:37;93473.81;;;8.20;64.05
59289;BME280;45056;47.602;9.886;2023-05-03T02:09:06;93470.75;;;8.18;64.16
59289;BME280;45056;47.602;9.886;2023-05-03T02:11:34;93476.59;;;8.16;64.24
59289;BME280;45056;47.602;9.886;2023-05-03T02:14:02;93481.66;;;8.14;64.42
59289;BME280;45056;47.602;9.886;2023-05-03T02:16:31;93483.59;;;8.14;64.35
59289;BME280;45056;47.602;9.886;2023-05-03T02:18:59;93489.78;;;8.14;64.30
59289;BME280;45056;47.602;9.886;2023-05-03T02:21:27;93489.78;;;8.14;64.13
59289;BME280;45056;47.602;9.886;2023-05-03T02:23:55;93482.84;;;8.13;63.77
59289;BME280;45056;47.602;9.886;2023-05-03T02:26:25;93486.75;;;8.12;63.62
59289;BME280;45056;47.602;9.886;2023-05-03T02:28:53;93475.50;;;8.10;63.60
59289;BME280;45056;47.602;9.886;2023-05-03T02:31:22;93486.00;;;8.08;63.78
59289;BME280;45056;47.602;9.886;2023-05-03T02:33:51;93479.03;;;8.07;63.70
59289;BME280;45056;47.602;9.886;2023-05-03T02:36:20;93478.34;;;8.03;63.73
59289;BME280;45056;47.602;9.886;2023-05-03T02:38:48;93484.59;;;8.00;63.98
59289;BME280;45056;47.602;9.886;2023-05-03T02:41:16;93474.56;;;7.97;63.93
59289;BME280;45056;47.602;9.886;2023-05-03T02:43:44;93478.88;;;7.94;64.02
59289;BME280;45056;47.602;9.886;2023-05-03T02:46:12;93477.75;;;7.91;64.04
59289;BME280;45056;47.602;9.886;2023-05-03T02:48:40;93478.16;;;7.90;64.06
59289;BME280;45056;47.602;9.886;2023-05-03T02:51:10;93475.44;;;7.90;64.10
59289;BME280;45056;47.602;9.886;2023-05-03T02:53:37;93474.69;;;7.89;63.92
59289;BME280;45056;47.602;9.886;2023-05-03T02:56:06;93476.63;;;7.89;63.85
59289;BME280;45056;47.602;9.886;2023-05-03T02:58:35;93477.81;;;7.88;63.77
59289;BME280;45056;47.602;9.886;2023-05-03T03:01:03;93477.88;;;7.84;63.92
59289;BME280;45056;47.602;9.886;2023-05-03T03:03:31;93485.66;;;7.82;63.57
59289;BME280;45056;47.602;9.886;2023-05-03T03:05:59;93471.38;;;7.78;63.95
59289;BME280;45056;47.602;9.886;2023-05-03T03:08:28;93474.06;;;7.78;64.03
59289;BME280;45056;47.602;9.886;2023-05-03T03:10:56;93479.50;;;7.78;64.07
59289;BME280;45056;47.602;9.886;2023-05-03T03:13:24;93475.66;;;7.75;63.87
59289;BME280;45056;47.602;9.886;2023-05-03T03:15:52;93471.78;;;7.76;64.06
59289;BME280;45056;47.602;9.886;2023-05-03T03:18:20;93466.38;;;7.76;63.92
59289;BME280;45056;47.602;9.886;2023-05-03T03:20:49;93466.00;;;7.74;63.75
59289;BME280;45056;47.602;9.886;2023-05-03T03:23:16;93468.72;;;7.74;63.66
59289;BME280;45056;47.602;9.886;2023-05-03T03:25:46;93469.56;;;7.71;63.56
59289;BME280;45056;47.602;9.886;2023-05-03T03:28:14;93462.25;;;7.68;63.61
59289;BME280;45056;47.602;9.886;2023-05-03T03:30:42;93458.75;;;7.68;63.67
59289;BME280;45056;47.602;9.886;2023-05-03T03:33:10;93458.00;;;7.67;63.81
59289;BME280;45056;47.602;9.886;2023-05-03T03:35:38;93458.78;;;7.64;63.96
59289;BME280;45056;47.602;9.886;2023-05-03T03:38:06;93452.28;;;7.61;63.95
59289;BME280;45056;47.602;9.886;2023-05-03T03:40:34;93451.91;;;7.59;64.18
59289;BME280;45056;47.602;9.886;2023-05-03T03:43:04;93456.56;;;7.59;64.20
59289;BME280;45056;47.602;9.886;2023-05-03T03:45:32;93448.84;;;7.57;64.35
59289;BME280;45056;47.602;9.886;2023-05-03T03:48:00;93451.56;;;7.57;64.33
59289;BME280;45056;47.602;9.886;2023-05-03T03:50:28;93446.53;;;7.56;64.22
59289;BME280;45056;47.602;9.886;2023-05-03T03:52:56;93448.50;;;7.55;64.20
59289;BME280;45056;47.602;9.886;2023-05-03T03:55:24;93455.44;;;7.56;64.31
59289;BME280;45056;47.602;9.886;2023-05-03T03:57:52;93461.63;;;7.57;63.72
59289;BME280;45056;47.602;9.886;2023-05-03T04:00:22;93459.34;;;7.55;63.93
59289;BME280;45056;47.602;9.886;2023-05-03T04:02:50;93464.75;;;7.55;64.09
59289;BME280;45056;47.602;9.886;2023-05-03T04:05:18;93466.69;;;7.55;64.00
59289;BME280;45056;47.602;9.886;2023-05-03T04:07:46;93469.03;;;7.53;63.99
59289;BME280;45056;47.602;9.886;2023-05-03T04:10:14;93464.38;;;7.53;63.91
59289;BME280;45056;47.602;9.886;2023-05-03T04:12:42;93461.69;;;7.53;63.94
59289;BME280;45056;47.602;9.886;2023-05-03T04:15:11;93469.44;;;7.51;64.05
59289;BME280;45056;47.602;9.886;2023-05-03T04:17:41;93467.50;;;7.51;64.06
59289;BME280;45056;47.602;9.886;2023-05-03T04:20:11;93464.03;;;7.51;64.16
59289;BME280;45056;47.602;9.886;2023-05-03T04:22:39;93470.16;;;7.55;64.00
59289;BME280;45056;47.602;9.886;2023-05-03T04:25:10;93477.47;;;7.58;63.97
59289;BME280;45056;47.602;9.886;2023-05-03T04:27:39;93475.50;;;7.59;63.85
59289;BME280;45056;47.602;9.886;2023-05-03T04:30:08;93477.81;;;7.60;63.67
59289;BME280;45056;47.602;9.886;2023-05-03T04:32:37;93468.91;;;7.60;63.65
59289;BME280;45056;47.602;9.886;2023-05-03T04:35:08;93467.38;;;7.59;63.94
59289;BME280;45056;47.602;9.886;2023-05-03T04:37:39;93469.69;;;7.60;64.11
59289;BME280;45056;47.602;9.886;2023-05-03T04:40:09;93476.66;;;7.61;64.21
59289;BME280;45056;47.602;9.886;2023-05-03T04:42:38;93481.63;;;7.63;64.29
59289;BME280;45056;47.602;9.886;2023-05-03T04:45:07;93470.41;;;7.64;64.38
59289;BME280;45056;47.602;9.886;2023-05-03T04:47:36;93483.56;;;7.66;64.43
59289;BME280;45056;47.602;9.886;2023-05-03T04:50:07;93487.78;;;7.67;64.60
59289;BME280;45056;47.602;9.886;2023-05-03T04:52:36;93477.31;;;7.69;64.49
59289;BME280;45056;47.602;9.886;2023-05-03T04:55:05;93473.38;;;7.74;64.61
59289;BME280;45056;47.602;9.886;2023-05-03T04:57:33;93484.13;;;7.81;64.47
59289;BME280;45056;47.602;9.886;2023-05-03T05:00:02;93488.63;;;7.88;64.43
59289;BME280;45056;47.602;9.886;2023-05-03T05:02:36;93493.19;;;7.94;64.24
59289;BME280;45056;47.602;9.886;2023-05-03T05:05:05;93490.34;;;8.02;64.12
59289;BME280;45056;47.602;9.886;2023-05-03T05:07:36;93489.50;;;8.08;64.19
59289;BME280;45056;47.602;9.886;2023-05-03T05:10:05;93486.66;;;8.16;64.11
59289;BME280;45056;47.602;9.886;2023-05-03T05:12:34;93488.84;;;8.25;64.09
59289;BME280;45056;47.602;9.886;2023-05-03T05:15:03;93485.13;;;8.38;64.08
59289;BME280;45056;47.602;9.886;2023-05-03T05:17:31;93492.53;;;9.02;63.34
59289;BME280;45056;47.602;9.886;2023-05-03T05:19:59;93498.25;;;11.10;58.99
59289;BME280;45056;47.602;9.886;2023-05-03T05:22:29;93490.16;;;13.87;53.70
59289;BME280;45056;47.602;9.886;2023-05-03T05:24:57;93503.91;;;15.77;47.16
59289;BME280;45056;47.602;9.886;2023-05-03T05:27:25;93498.91;;;16.18;46.38
59289;BME280;45056;47.602;9.886;2023-05-03T05:29:53;93497.44;;;16.08;46.47
59289;BME280;45056;47.602;9.886;2023-05-03T05:32:25;93503.44;;;15.78;47.17
59289;BME280;45056;47.602;9.886;2023-05-03T05:34:56;93505.97;;;15.29;48.19
59289;BME280;45056;47.602;9.886;2023-05-03T05:37:24;93502.91;;;14.81;49.38
59289;BME280;45056;47.602;9.886;2023-05-03T05:39:54;93506.78;;;14.42;50.17
59289;BME280;45056;47.602;9.886;2023-05-03T05:42:22;93504.84;;;14.11;51.14
59289;BME280;45056;47.602;9.886;2023-05-03T05:44:50;93508.56;;;13.86;51.47
59289;BME280;45056;47.602;9.886;2023-05-03T05:47:18;93501.72;;;13.59;52.15
59289;BME280;45056;47.602;9.886;2023-05-03T05:49:46;93507.78;;;13.32;52.57
59289;BME280;45056;47.602;9.886;2023-05-03T05:52:14;93497.53;;;13.01;53.33
59289;BME280;45056;47.602;9.886;2023-05-03T05:54:42;93503.72;;;12.79;53.83
59289;BME280;45056;47.602;9.886;2023-05-03T05:57:12;93508.81;;;12.54;54.41
59289;BME280;45056;47.602;9.886;2023-05-03T05:59:40;93509.59;;;12.29;55.17
59289;BME280;45056;47.602;9.886;2023-05-03T06:02:13;93513.44;;;12.06;56.02
59289;BME280;45056;47.602;9.886;2023-05-03T06:04:43;93520.53;;;11.90;56.68
59289;BME280;45056;47.602;9.886;2023-05-03T06:07:13;93517.34;;;11.79;56.92
59289;BME280;45056;47.602;9.886;2023-05-03T06:09:41;93522.13;;;11.75;57.31
59289;BME280;45056;47.602;9.886;2023-05-03T06:12:09;93521.91;;;11.69;57.64
59289;BME280;45056;47.602;9.886;2023-05-03T06:14:39;93519.38;;;11.62;57.87
59289;BME280;45056;47.602;9.886;2023-05-03T06:17:08;93524.63;;;11.56;58.02
59289;BME280;45056;47.602;9.886;2023-05-03T06:19:36;93517.75;;;11.51;58.09
59289;BME280;45056;47.602;9.886;2023-05-03T06:22:04;93522.22;;;11.45;58.27
59289;BME280;45056;47.602;9.886;2023-05-03T06:24:32;93521.44;;;11.45;58.25
59289;BME280;45056;47.602;9.886;2023-05-03T06:27:01;93531.59;;;11.44;58.17
59289;BME280;45056;47.602;9.886;2023-05-03T06:29:30;93525.13;;;11.38;58.61
59289;BME280;45056;47.602;9.886;2023-05-03T06:31:58;93518.59;;;11.35;58.94
59289;BME280;45056;47.602;9.886;2023-05-03T06:34:26;93523.06;;;11.42;58.95
59289;BME280;45056;47.602;9.886;2023-05-03T06:36:54;93523.88;;;11.68;58.73
59289;BME280;45056;47.602;9.886;2023-05-03T06:39:22;93523.34;;;12.51;57.10
59289;BME280;45056;47.602;9.886;2023-05-03T06:41:51;93521.09;;;13.74;54.54
59289;BME280;45056;47.602;9.886;2023-05-03T06:44:19;93524.84;;;14.90;51.43
59289;BME280;45056;47.602;9.886;2023-05-03T06:46:48;93526.97;;;16.13;48.86
59289;BME280;45056;47.602;9.886;2023-05-03T06:49:16;93526.09;;;17.23;46.46
59289;BME280;45056;47.602;9.886;2023-05-03T06:51:44;93517.28;;;18.39;43.85
59289;BME280;45056;47.602;9.886;2023-05-03T06:54:12;93520.75;;;19.58;41.66
59289;BME280;45056;47.602;9.886;2023-05-03T06:56:40;93525.09;;;20.55;39.72
59289;BME280;45056;47.602;9.886;2023-05-03T06:59:08;93528.25;;;21.24;38.36
59289;BME280;45056;47.602;9.886;2023-05-03T07:01:36;93521.41;;;21.97;37.24
59289;BME280;45056;47.602;9.886;2023-05-03T07:04:06;93528.47;;;22.55;35.71
59289;BME280;45056;47.602;9.886;2023-05-03T07:06:34;93528.34;;;23.06;34.53
59289;BME280;45056;47.602;9.886;2023-05-03T07:09:02;93525.53;;;23.29;33.46
59289;BME280;45056;47.602;9.886;2023-05-03T07:11:30;93523.34;;;22.99;33.63
59289;BME280;45056;47.602;9.886;2023-05-03T07:14:00;93516.31;;;22.81;33.38
59289;BME280;45056;47.602;9.886;2023-05-03T07:16:27;93517.38;;;22.15;34.77
59289;BME280;45056;47.602;9.886;2023-05-03T07:18:55;93518.72;;;21.30;36.11
59289;BME280;45056;47.602;9.886;2023-05-03T07:21:25;93516.16;;;20.72;37.33
59289;BME280;45056;47.602;9.886;2023-05-03T07:23:55;93515.84;;;20.21;38.24
59289;BME280;45056;47.602;9.886;2023-05-03T07:26:23;93517.00;;;19.55;39.59
59289;BME280;45056;47.602;9.886;2023-05-03T07:28:52;93516.78;;;18.97;40.65
59289;BME280;45056;47.602;9.886;2023-05-03T07:31:22;93509.25;;;18.56;41.80
59289;BME280;45056;47.602;9.886;2023-05-03T07:33:51;93505.94;;;18.16;43.00
59289;BME280;45056;47.602;9.886;2023-05-03T07:36:19;93502.34;;;17.80;43.64
59289;BME280;45056;47.602;9.886;2023-05-03T07:38:48;93490.94;;;17.42;44.77
59289;BME280;45056;47.602;9.886;2023-05-03T07:41:16;93498.91;;;17.00;45.29
59289;BME280;45056;47.602;9.886;2023-05-03T07:43:44;93491.28;;;16.71;46.51
59289;BME280;45056;47.602;9.886;2023-05-03T07:46:12;93489.41;;;16.77;47.18
59289;BME280;45056;47.602;9.886;2023-05-03T07:48:40;93496.75;;;17.05;46.85
59289;BME280;45056;47.602;9.886;2023-05-03T07:51:08;93496.88;;;17.25;46.71
59289;BME280;45056;47.602;9.886;2023-05-03T07:53:36;93491.09;;;17.38;46.33
59289;BME280;45056;47.602;9.886;2023-05-03T07:56:07;93489.50;;;17.47;46.38
59289;BME280;45056;47.602;9.886;2023-05-03T07:58:35;93489.16;;;17.54;45.71
59289;BME280;45056;47.602;9.886;2023-05-03T08:01:03;93485.22;;;17.76;45.41
59289;BME280;45056;47.602;9.886;2023-05-03T08:03:31;93478.88;;;17.84;45.69
59289;BME280;45056;47.602;9.886;2023-05-03T08:05:59;93481.16;;;17.86;45.36
59289;BME280;45056;47.602;9.886;2023-05-03T08:08:27;93481.06;;;17.95;44.87
59289;BME280;45056;47.602;9.886;2023-05-03T08:10:57;93473.19;;;18.03;44.32
59289;BME280;45056;47.602;9.886;2023-05-03T08:13:26;93474.47;;;18.23;44.32
59289;BME280;45056;47.602;9.886;2023-05-03T08:15:54;93468.81;;;18.47;43.71
59289;BME280;45056;47.602;9.886;2023-05-03T08:18:22;93469.88;;;18.70;42.81
59289;BME280;45056;47.602;9.886;2023-05-03T08:20:51;93467.88;;;18.92;42.21
59289;BME280;45056;47.602;9.886;2023-05-03T08:23:19;93467.44;;;19.20;40.52
59289;BME280;45056;47.602;9.886;2023-05-03T08:25:47;93454.97;;;19.51;39.26
59289;BME280;45056;47.602;9.886;2023-05-03T08:28:15;93471.56;;;19.83;38.55
59289;BME280;45056;47.602;9.886;2023-05-03T08:30:45;93480.03;;;20.43;37.69
59289;BME280;45056;47.602;9.886;2023-05-03T08:33:13;93468.50;;;20.88;37.68
59289;BME280;45056;47.602;9.886;2023-05-03T08:35:41;93468.09;;;21.13;37.23
59289;BME280;45056;47.602;9.886;2023-05-03T08:38:09;93473.13;;;21.09;36.76
59289;BME280;45056;47.602;9.886;2023-05-03T08:40:37;93463.97;;;20.85;36.49
59289;BME280;45056;47.602;9.886;2023-05-03T08:43:07;93470.78;;;20.46;36.94
59289;BME280;45056;47.602;9.886;2023-05-03T08:45:36;93452.69;;;19.75;37.57
59289;BME280;45056;47.602;9.886;2023-05-03T08:48:06;93462.78;;;19.05;39.04
59289;BME280;45056;47.602;9.886;2023-05-03T08:50:34;93448.34;;;18.54;40.14
59289;BME280;45056;47.602;9.886;2023-05-03T08:53:07;93462.25;;;18.09;41.04
59289;BME280;45056;47.602;9.886;2023-05-03T08:55:36;93458.78;;;17.78;41.82
59289;BME280;45056;47.602;9.886;2023-05-03T08:58:06;93456.97;;;17.60;42.29
59289;BME280;45056;47.602;9.886;2023-05-03T09:00:38;93448.22;;;17.47;42.58
59289;BME280;45056;47.602;9.886;2023-05-03T09:03:08;93448.81;;;17.21;42.51
59289;BME280;45056;47.602;9.886;2023-05-03T09:05:37;93443.47;;;17.02;42.63
59289;BME280;45056;47.602;9.886;2023-05-03T09:08:08;93449.31;;;16.95;42.98
59289;BME280;45056;47.602;9.886;2023-05-03T09:10:39;93439.31;;;16.82;43.54
59289;BME280;45056;47.602;9.886;2023-05-03T09:13:09;93437.22;;;16.77;44.02
59289;BME280;45056;47.602;9.886;2023-05-03T09:15:38;93439.91;;;16.86;42.58
59289;BME280;45056;47.602;9.886;2023-05-03T09:18:12;93441.34;;;16.97;42.89
59289;BME280;45056;47.602;9.886;2023-05-03T09:20:43;93434.16;;;16.99;43.24
59289;BME280;45056;47.602;9.886;2023-05-03T09:23:17;93441.88;;;16.86;43.38
59289;BME280;45056;47.602;9.886;2023-05-03T09:25:56;93432.50;;;16.78;43.88
59289;BME280;45056;47.602;9.886;2023-05-03T09:28:25;93434.19;;;16.75;43.71
59289;BME280;45056;47.602;9.886;2023-05-03T09:31:04;93418.91;;;16.74;43.50
59289;BME280;45056;47.602;9.886;2023-05-03T09:33:34;93427.81;;;16.69;44.78
59289;BME280;45056;47.602;9.886;2023-05-03T09:36:04;93434.25;;;16.66;45.80
59289;BME280;45056;47.602;9.886;2023-05-03T09:38:34;93429.50;;;16.66;45.34
59289;BME280;45056;47.602;9.886;2023-05-03T09:41:03;93431.22;;;16.64;45.05
59289;BME280;45056;47.602;9.886;2023-05-03T09:43:32;93433.09;;;16.57;45.13
59289;BME280;45056;47.602;9.886;2023-05-03T09:46:11;93427.59;;;16.57;45.29
59289;BME280;45056;47.602;9.886;2023-05-03T09:48:41;93434.41;;;16.62;45.50
59289;BME280;45056;47.602;9.886;2023-05-03T09:51:11;93430.16;;;16.61;45.31
59289;BME280;45056;47.602;9.886;2023-05-03T09:53:39;93429.75;;;16.53;44.50
59289;BME280;45056;47.602;9.886;2023-05-03T09:56:09;93441.63;;;16.59;44.97
59289;BME280;45056;47.602;9.886;2023-05-03T09:58:40;93435.47;;;16.65;44.48
59289;BME280;45056;47.602;9.886;2023-05-03T10:01:09;93437.28;;;16.68;43.85
59289;BME280;45056;47.602;9.886;2023-05-03T10:03:42;93443.94;;;16.76;44.01
59289;BME280;45056;47.602;9.886;2023-05-03T10:06:23;93442.06;;;16.82;44.28
59289;BME280;45056;47.602;9.886;2023-05-03T10:08:59;93426.91;;;16.87;44.32
59289;BME280;45056;47.602;9.886;2023-05-03T10:11:33;93428.44;;;16.88;44.25
59289;BME280;45056;47.602;9.886;2023-05-03T10:14:04;93433.75;;;16.92;44.32
59289;BME280;45056;47.602;9.886;2023-05-03T10:16:36;93432.41;;;16.87;43.86
59289;BME280;45056;47.602;9.886;2023-05-03T10:19:14;93432.19;;;16.76;42.54
59289;BME280;45056;47.602;9.886;2023-05-03T10:21:54;93434.94;;;16.76;43.79
59289;BME280;45056;47.602;9.886;2023-05-03T10:24:29;93426.34;;;16.83;43.72
59289;BME280;45056;47.602;9.886;2023-05-03T10:26:58;93427.47;;;16.91;43.59
59289;BME280;45056;47.602;9.886;2023-05-03T10:29:44;93433.97;;;17.03;43.02
59289;BME280;45056;47.602;9.886;2023-05-03T10:32:33;93429.44;;;17.00;41.81
59289;BME280;45056;47.602;9.886;2023-05-03T10:35:13;93423.47;;;17.01;42.12
59289;BME280;45056;47.602;9.886;2023-05-03T10:37:42;93429.84;;;17.08;43.47
59289;BME280;45056;47.602;9.886;2023-05-03T10:40:13;93425.88;;;17.24;43.85
59289;BME280;45056;47.602;9.886;2023-05-03T10:42:43;93430.41;;;17.42;43.49
59289;BME280;45056;47.602;9.886;2023-05-03T10:45:21;93428.97;;;17.62;43.86
59289;BME280;45056;47.602;9.886;2023-05-03T10:48:16;93429.63;;;17.86;43.81
59289;BME280;45056;47.602;9.886;2023-05-03T10:50:48;93438.34;;;18.00;42.40
59289;BME280;45056;47.602;9.886;2023-05-03T10:53:37;93429.72;;;18.07;42.71
59289;BME280;45056;47.602;9.886;2023-05-03T10:56:08;93430.75;;;18.10;41.95
59289;BME280;45056;47.602;9.886;2023-05-03T10:58:41;93429.94;;;18.24;42.65
59289;BME280;45056;47.602;9.886;2023-05-03T11:01:12;93425.72;;;18.44;42.57
59289;BME280;45056;47.602;9.886;2023-05-03T11:03:47;93423.97;;;18.67;42.61
59289;BME280;45056;47.602;9.886;2023-05-03T11:06:33;93422.66;;;18.83;41.26
59289;BME280;45056;47.602;9.886;2023-05-03T11:09:04;93419.28;;;18.94;40.92
59289;BME280;45056;47.602;9.886;2023-05-03T11:11:35;93419.84;;;18.98;41.57
59289;BME280;45056;47.602;9.886;2023-05-03T11:14:05;93419.84;;;18.98;40.91
59289;BME280;45056;47.602;9.886;2023-05-03T11:16:34;93418.19;;;19.07;41.29
59289;BME280;45056;47.602;9.886;2023-05-03T11:19:05;93418.94;;;19.07;40.68
59289;BME280;45056;47.602;9.886;2023-05-03T11:21:35;93414.88;;;18.82;39.72
59289;BME280;45056;47.602;9.886;2023-05-03T11:24:03;93419.28;;;18.73;41.08
59289;BME280;45056;47.602;9.886;2023-05-03T11:26:34;93414.56;;;18.74;41.48
59289;BME280;45056;47.602;9.886;2023-05-03T11:29:03;93416.25;;;18.71;40.33
59289;BME280;45056;47.602;9.886;2023-05-03T11:31:31;93414.56;;;18.74;40.70
59289;BME280;45056;47.602;9.886;2023-05-03T11:34:01;93404.34;;;18.80;41.34
59289;BME280;45056;47.602;9.886;2023-05-03T11:36:29;93411.41;;;18.87;40.68
59289;BME280;45056;47.602;9.886;2023-05-03T11:38:59;93414.41;;;18.83;40.17
59289;BME280;45056;47.602;9.886;2023-05-03T11:41:27;93406.13;;;18.83;40.55
59289;BME280;45056;47.602;9.886;2023-05-03T11:43:55;93413.84;;;18.79;40.05
59289;BME280;45056;47.602;9.886;2023-05-03T11:46:26;93415.09;;;18.78;40.11
59289;BME280;45056;47.602;9.886;2023-05-03T11:48:59;93414.13;;;18.81;39.56
59289;BME280;45056;47.602;9.886;2023-05-03T11:51:29;93422.59;;;18.78;39.51
59289;BME280;45056;47.602;9.886;2023-05-03T11:54:00;93416.88;;;18.81;39.80
59289;BME280;45056;47.602;9.886;2023-05-03T11:56:29;93415.72;;;18.88;40.04
59289;BME280;45056;47.602;9.886;2023-05-03T11:58:57;93412.34;;;18.78;40.41
59289;BME280;45056;47.602;9.886;2023-05-03T12:01:27;93411.84;;;18.80;40.02
59289;BME280;45056;47.602;9.886;2023-05-03T12:03:57;93415.13;;;18.84;39.92
59289;BME280;45056;47.602;9.886;2023-05-03T12:06:28;93414.78;;;18.97;41.09
59289;BME280;45056;47.602;9.886;2023-05-03T12:09:01;93413.84;;;19.00;41.25
59289;BME280;45056;47.602;9.886;2023-05-03T12:11:39;93418.47;;;18.88;42.69
59289;BME280;45056;47.602;9.886;2023-05-03T12:14:07;93411.78;;;18.74;43.46
59289;BME280;45056;47.602;9.886;2023-05-03T12:16:45;93413.16;;;18.64;43.89
59289;BME280;45056;47.602;9.886;2023-05-03T12:19:23;93416.75;;;18.49;42.96
59289;BME280;45056;47.602;9.886;2023-05-03T12:21:52;93410.69;;;18.45;44.37
59289;BME280;45056;47.602;9.886;2023-05-03T12:24:22;93405.66;;;18.64;45.62
59289;BME280;45056;47.602;9.886;2023-05-03T12:26:50;93402.59;;;18.83;43.50
59289;BME280;45056;47.602;9.886;2023-05-03T12:29:18;93405.16;;;18.86;43.44
59289;BME280;45056;47.602;9.886;2023-05-03T12:31:46;93408.81;;;18.78;43.06
59289;BME280;45056;47.602;9.886;2023-05-03T12:34:14;93402.28;;;18.54;42.23
59289;BME280;45056;47.602;9.886;2023-05-03T12:36:42;93404.75;;;18.31;43.44
59289;BME280;45056;47.602;9.886;2023-05-03T12:39:10;93411.72;;;18.27;44.14
59289;BME280;45056;47.602;9.886;2023-05-03T12:41:40;93395.53;;;18.35;44.38
59289;BME280;45056;47.602;9.886;2023-05-03T12:44:08;93396.00;;;18.54;44.97
59289;BME280;45056;47.602;9.886;2023-05-03T12:46:36;93400.63;;;18.63;44.92
59289;BME280;45056;47.602;9.886;2023-05-03T12:49:05;93403.03;;;18.55;43.93
59289;BME280;45056;47.602;9.886;2023-05-03T12:51:33;93404.56;;;18.35;43.87
59289;BME280;45056;47.602;9.886;2023-05-03T12:54:01;93394.00;;;18.34;44.02
59289;BME280;45056;47.602;9.886;2023-05-03T12:56:32;93388.44;;;18.49;44.44
59289;BME280;45056;47.602;9.886;2023-05-03T12:59:01;93387.38;;;18.67;44.00
59289;BME280;45056;47.602;9.886;2023-05-03T13:01:29;93396.28;;;18.77;43.70
59289;BME280;45056;47.602;9.886;2023-05-03T13:03:58;93392.91;;;18.67;43.50
59289;BME280;45056;47.602;9.886;2023-05-03T13:06:26;93389.75;;;18.53;43.60
59289;BME280;45056;47.602;9.886;2023-05-03T13:08:54;93385.03;;;18.39;44.23
59289;BME280;45056;47.602;9.886;2023-05-03T13:11:22;93385.81;;;18.39;44.97
59289;BME280;45056;47.602;9.886;2023-05-03T13:13:51;93380.25;;;18.54;45.00
59289;BME280;45056;47.602;9.886;2023-05-03T13:16:21;93384.25;;;18.53;43.82
59289;BME280;45056;47.602;9.886;2023-05-03T13:18:49;93377.09;;;18.41;43.43